sensor_id;sensor_type;location;lat;lon;timestamp;P1;durP1;ratioP1;P2;durP2;ratioP2
55288;SDS011;41154;45.394;5.734;2024-03-29T00:00:35;0.10;;;0.10;;
55288;SDS011;41154;45.394;5.734;2024-03-29T00:03:00;3.42;;;0.25;;
55288;SDS011;41154;45.394;5.734;2024-03-29T00:05:26;0.63;;;0.43;;
55288;SDS011;41154;45.394;5.734;2024-03-29T00:07:51;0.30;;;0.20;;
55288;SDS011;41154;45.394;5.734;2024-03-29T00:10:17;0.63;;;0.30;;
55288;SDS011;41154;45.394;5.734;2024-03-29T00:12:42;1.13;;;0.30;;
55288;SDS011;41154;45.394;5.734;2024-03-29T00:15:26;1.30;;;0.22;;
55288;SDS011;41154;45.394;5.734;2024-03-29T00:17:52;0.98;;;0.20;;
55288;SDS011;41154;45.394;5.734;2024-03-29T00:20:17;0.28;;;0.20;;
55288;SDS011;41154;45.394;5.734;2024-03-29T00:22:43;0.50;;;0.32;;
55288;SDS011;41154;45.394;5.734;2024-03-29T00:25:09;1.35;;;0.30;;
55288;SDS011;41154;45.394;5.734;2024-03-29T00:27:35;0.30;;;0.20;;
55288;SDS011;41154;45.394;5.734;2024-03-29T00:30:01;0.50;;;0.22;;
55288;SDS011;41154;45.394;5.734;2024-03-29T00:32:27;0.30;;;0.30;;
55288;SDS011;41154;45.394;5.734;2024-03-29T00:34:52;0.38;;;0.20;;
55288;SDS011;41154;45.394;5.734;2024-03-29T00:37:19;0.73;;;0.20;;
55288;SDS011;41154;45.394;5.734;2024-03-29T00:39:45;0.38;;;0.22;;
55288;SDS011;41154;45.394;5.734;2024-03-29T00:42:10;0.77;;;0.22;;
55288;SDS011;41154;45.394;5.734;2024-03-29T00:44:45;0.30;;;0.20;;
55288;SDS011;41154;45.394;5.734;2024-03-29T00:47:10;0.80;;;0.20;;
55288;SDS011;41154;45.394;5.734;2024-03-29T00:49:36;0.88;;;0.50;;
55288;SDS011;41154;45.394;5.734;2024-03-29T00:52:02;0.65;;;0.30;;
55288;SDS011;41154;45.394;5.734;2024-03-29T00:54:27;1.17;;;0.20;;
55288;SDS011;41154;45.394;5.734;2024-03-29T00:56:53;0.40;;;0.20;;
55288;SDS011;41154;45.394;5.734;2024-03-29T00:59:18;1.83;;;0.20;;
55288;SDS011;41154;45.394;5.734;2024-03-29T01:01:45;0.20;;;0.20;;
55288;SDS011;41154;45.394;5.734;2024-03-29T01:04:11;0.38;;;0.10;;
55288;SDS011;41154;45.394;5.734;2024-03-29T01:06:36;0.82;;;0.25;;
55288;SDS011;41154;45.394;5.734;2024-03-29T01:09:02;0.20;;;0.20;;
55288;SDS011;41154;45.394;5.734;2024-03-29T01:11:29;0.30;;;0.20;;
55288;SDS011;41154;45.394;5.734;2024-03-29T01:13:54;0.75;;;0.20;;
55288;SDS011;41154;45.394;5.734;2024-03-29T01:16:20;1.13;;;0.30;;
55288;SDS011;41154;45.394;5.734;2024-03-29T01:18:45;0.20;;;0.20;;
55288;SDS011;41154;45.394;5.734;2024-03-29T01:24:19;0.93;;;0.45;;
55288;SDS011;41154;45.394;5.734;2024-03-29T01:26:45;0.73;;;0.32;;
55288;SDS011;41154;45.394;5.734;2024-03-29T01:29:10;0.60;;;0.30;;
55288;SDS011;41154;45.394;5.734;2024-03-29T01:31:36;0.30;;;0.20;;
55288;SDS011;41154;45.394;5.734;2024-03-29T01:34:02;0.50;;;0.32;;
55288;SDS011;41154;45.394;5.734;2024-03-29T01:36:28;0.93;;;0.30;;
55288;SDS011;41154;45.394;5.734;2024-03-29T01:39:09;0.20;;;0.20;;
55288;SDS011;41154;45.394;5.734;2024-03-29T01:41:39;0.40;;;0.30;;
55288;SDS011;41154;45.394;5.734;2024-03-29T01:47:40;0.63;;;0.40;;
55288;SDS011;41154;45.394;5.734;2024-03-29T01:50:06;0.20;;;0.20;;
55288;SDS011;41154;45.394;5.734;2024-03-29T01:52:31;0.68;;;0.20;;
55288;SDS011;41154;45.394;5.734;2024-03-29T01:54:57;0.40;;;0.20;;
55288;SDS011;41154;45.394;5.734;2024-03-29T01:57:22;0.30;;;0.20;;
55288;SDS011;41154;45.394;5.734;2024-03-29T01:59:48;0.88;;;0.28;;
55288;SDS011;41154;45.394;5.734;2024-03-29T02:02:13;0.38;;;0.20;;
55288;SDS011;41154;45.394;5.734;2024-03-29T02:04:39;2.28;;;0.40;;
55288;SDS011;41154;45.394;5.734;2024-03-29T02:07:04;1.15;;;0.20;;
55288;SDS011;41154;45.394;5.734;2024-03-29T02:09:30;5.10;;;0.30;;
55288;SDS011;41154;45.394;5.734;2024-03-29T02:11:56;0.45;;;0.30;;
55288;SDS011;41154;45.394;5.734;2024-03-29T02:14:22;0.93;;;0.20;;
55288;SDS011;41154;45.394;5.734;2024-03-29T02:30:12;1.17;;;0.20;;
55288;SDS011;41154;45.394;5.734;2024-03-29T02:32:39;2.60;;;0.40;;
55288;SDS011;41154;45.394;5.734;2024-03-29T02:35:06;0.30;;;0.10;;
55288;SDS011;41154;45.394;5.734;2024-03-29T02:37:31;1.38;;;0.30;;
55288;SDS011;41154;45.394;5.734;2024-03-29T02:39:57;2.10;;;0.40;;
55288;SDS011;41154;45.394;5.734;2024-03-29T02:42:23;0.63;;;0.52;;
55288;SDS011;41154;45.394;5.734;2024-03-29T02:44:49;2.88;;;0.35;;
55288;SDS011;41154;45.394;5.734;2024-03-29T02:47:14;1.45;;;0.30;;
55288;SDS011;41154;45.394;5.734;2024-03-29T02:49:40;1.15;;;0.30;;
55288;SDS011;41154;45.394;5.734;2024-03-29T02:52:06;0.50;;;0.17;;
55288;SDS011;41154;45.394;5.734;2024-03-29T02:54:33;2.30;;;0.73;;
55288;SDS011;41154;45.394;5.734;2024-03-29T02:56:58;2.00;;;0.20;;
55288;SDS011;41154;45.394;5.734;2024-03-29T02:59:24;0.20;;;0.20;;
55288;SDS011;41154;45.394;5.734;2024-03-29T03:04:44;0.45;;;0.20;;
55288;SDS011;41154;45.394;5.734;2024-03-29T03:07:09;0.93;;;0.30;;
55288;SDS011;41154;45.394;5.734;2024-03-29T03:09:54;0.88;;;0.20;;
55288;SDS011;41154;45.394;5.734;2024-03-29T03:12:38;1.20;;;0.30;;
55288;SDS011;41154;45.394;5.734;2024-03-29T03:15:05;1.00;;;0.32;;
55288;SDS011;41154;45.394;5.734;2024-03-29T03:24:02;1.35;;;0.20;;
55288;SDS011;41154;45.394;5.734;2024-03-29T03:29:23;0.28;;;0.25;;
55288;SDS011;41154;45.394;5.734;2024-03-29T03:31:48;1.90;;;0.22;;
55288;SDS011;41154;45.394;5.734;2024-03-29T03:34:14;1.52;;;0.20;;
55288;SDS011;41154;45.394;5.734;2024-03-29T03:36:40;0.85;;;0.20;;
55288;SDS011;41154;45.394;5.734;2024-03-29T03:39:06;3.03;;;0.25;;
55288;SDS011;41154;45.394;5.734;2024-03-29T03:41:31;0.70;;;0.20;;
55288;SDS011;41154;45.394;5.734;2024-03-29T03:43:57;0.17;;;0.10;;
55288;SDS011;41154;45.394;5.734;2024-03-29T03:46:23;1.33;;;0.25;;
55288;SDS011;41154;45.394;5.734;2024-03-29T03:48:48;0.40;;;0.17;;
55288;SDS011;41154;45.394;5.734;2024-03-29T03:51:14;0.10;;;0.10;;
55288;SDS011;41154;45.394;5.734;2024-03-29T03:53:40;0.40;;;0.20;;
55288;SDS011;41154;45.394;5.734;2024-03-29T03:58:58;0.80;;;0.20;;
55288;SDS011;41154;45.394;5.734;2024-03-29T04:01:23;0.60;;;0.30;;
55288;SDS011;41154;45.394;5.734;2024-03-29T04:03:50;0.10;;;0.10;;
55288;SDS011;41154;45.394;5.734;2024-03-29T04:06:16;0.43;;;0.17;;
55288;SDS011;41154;45.394;5.734;2024-03-29T04:08:43;1.65;;;0.10;;
55288;SDS011;41154;45.394;5.734;2024-03-29T04:11:10;0.25;;;0.10;;
55288;SDS011;41154;45.394;5.734;2024-03-29T04:13:35;0.30;;;0.20;;
55288;SDS011;41154;45.394;5.734;2024-03-29T04:16:04;0.30;;;0.20;;
55288;SDS011;41154;45.394;5.734;2024-03-29T04:18:33;0.30;;;0.13;;
55288;SDS011;41154;45.394;5.734;2024-03-29T04:21:00;0.17;;;0.08;;
55288;SDS011;41154;45.394;5.734;2024-03-29T04:23:42;0.90;;;0.10;;
55288;SDS011;41154;45.394;5.734;2024-03-29T04:26:08;0.10;;;0.10;;
55288;SDS011;41154;45.394;5.734;2024-03-29T04:28:34;1.15;;;0.10;;
55288;SDS011;41154;45.394;5.734;2024-03-29T04:31:00;0.43;;;0.10;;
55288;SDS011;41154;45.394;5.734;2024-03-29T04:33:26;1.08;;;0.20;;
55288;SDS011;41154;45.394;5.734;2024-03-29T04:35:59;0.10;;;0.10;;
55288;SDS011;41154;45.394;5.734;2024-03-29T04:41:34;0.25;;;0.20;;
55288;SDS011;41154;45.394;5.734;2024-03-29T04:44:00;0.03;;;0.00;;
55288;SDS011;41154;45.394;5.734;2024-03-29T04:46:29;2.20;;;0.20;;
55288;SDS011;41154;45.394;5.734;2024-03-29T04:48:56;0.40;;;0.10;;
55288;SDS011;41154;45.394;5.734;2024-03-29T04:54:16;1.65;;;0.20;;
55288;SDS011;41154;45.394;5.734;2024-03-29T04:56:42;1.95;;;0.20;;
55288;SDS011;41154;45.394;5.734;2024-03-29T04:59:08;0.50;;;0.20;;
55288;SDS011;41154;45.394;5.734;2024-03-29T05:01:35;0.38;;;0.20;;
55288;SDS011;41154;45.394;5.734;2024-03-29T05:04:01;0.30;;;0.20;;
55288;SDS011;41154;45.394;5.734;2024-03-29T05:06:28;1.10;;;0.10;;
55288;SDS011;41154;45.394;5.734;2024-03-29T05:08:54;0.63;;;0.20;;
55288;SDS011;41154;45.394;5.734;2024-03-29T05:11:20;0.10;;;0.10;;
55288;SDS011;41154;45.394;5.734;2024-03-29T05:13:46;1.00;;;0.15;;
55288;SDS011;41154;45.394;5.734;2024-03-29T05:16:12;1.02;;;0.10;;
55288;SDS011;41154;45.394;5.734;2024-03-29T05:18:38;0.98;;;0.17;;
55288;SDS011;41154;45.394;5.734;2024-03-29T05:21:04;0.85;;;0.17;;
55288;SDS011;41154;45.394;5.734;2024-03-29T05:23:30;0.47;;;0.15;;
55288;SDS011;41154;45.394;5.734;2024-03-29T05:25:56;2.40;;;0.30;;
55288;SDS011;41154;45.394;5.734;2024-03-29T05:28:22;0.68;;;0.20;;
55288;SDS011;41154;45.394;5.734;2024-03-29T05:30:48;0.82;;;0.20;;
55288;SDS011;41154;45.394;5.734;2024-03-29T05:36:08;0.55;;;0.10;;
55288;SDS011;41154;45.394;5.734;2024-03-29T05:38:36;4.13;;;0.30;;
55288;SDS011;41154;45.394;5.734;2024-03-29T05:41:02;1.58;;;0.50;;
55288;SDS011;41154;45.394;5.734;2024-03-29T05:46:25;3.00;;;0.30;;
55288;SDS011;41154;45.394;5.734;2024-03-29T05:51:48;0.50;;;0.17;;
55288;SDS011;41154;45.394;5.734;2024-03-29T05:54:15;3.83;;;0.40;;
55288;SDS011;41154;45.394;5.734;2024-03-29T05:56:41;0.20;;;0.17;;
55288;SDS011;41154;45.394;5.734;2024-03-29T05:59:06;1.25;;;0.22;;
55288;SDS011;41154;45.394;5.734;2024-03-29T06:01:32;1.08;;;0.13;;
55288;SDS011;41154;45.394;5.734;2024-03-29T06:04:01;0.17;;;0.10;;
55288;SDS011;41154;45.394;5.734;2024-03-29T06:06:29;1.85;;;0.20;;
55288;SDS011;41154;45.394;5.734;2024-03-29T06:08:55;0.52;;;0.20;;
55288;SDS011;41154;45.394;5.734;2024-03-29T06:11:21;1.27;;;0.32;;
55288;SDS011;41154;45.394;5.734;2024-03-29T06:13:46;1.23;;;0.20;;
55288;SDS011;41154;45.394;5.734;2024-03-29T06:16:22;1.40;;;0.40;;
55288;SDS011;41154;45.394;5.734;2024-03-29T06:19:24;1.77;;;0.15;;
55288;SDS011;41154;45.394;5.734;2024-03-29T06:21:49;2.88;;;0.30;;
55288;SDS011;41154;45.394;5.734;2024-03-29T06:27:10;1.33;;;0.20;;
55288;SDS011;41154;45.394;5.734;2024-03-29T06:29:36;0.73;;;0.20;;
55288;SDS011;41154;45.394;5.734;2024-03-29T06:32:02;0.52;;;0.22;;
55288;SDS011;41154;45.394;5.734;2024-03-29T06:34:31;1.15;;;0.20;;
55288;SDS011;41154;45.394;5.734;2024-03-29T06:36:56;0.80;;;0.30;;
55288;SDS011;41154;45.394;5.734;2024-03-29T06:39:22;0.10;;;0.10;;
55288;SDS011;41154;45.394;5.734;2024-03-29T06:41:48;0.50;;;0.20;;
55288;SDS011;41154;45.394;5.734;2024-03-29T06:44:14;2.17;;;0.30;;
55288;SDS011;41154;45.394;5.734;2024-03-29T12:47:30;32.38;;;3.35;;
55288;SDS011;41154;45.394;5.734;2024-03-29T12:50:00;30.17;;;3.58;;
55288;SDS011;41154;45.394;5.734;2024-03-29T12:52:26;43.85;;;5.00;;
55288;SDS011;41154;45.394;5.734;2024-03-29T12:54:52;40.38;;;4.65;;
55288;SDS011;41154;45.394;5.734;2024-03-29T12:57:17;40.17;;;5.03;;
55288;SDS011;41154;45.394;5.734;2024-03-29T12:59:46;34.38;;;3.90;;
55288;SDS011;41154;45.394;5.734;2024-03-29T13:02:12;32.92;;;4.10;;
55288;SDS011;41154;45.394;5.734;2024-03-29T13:04:38;42.55;;;4.30;;
55288;SDS011;41154;45.394;5.734;2024-03-29T13:07:08;28.88;;;4.35;;
55288;SDS011;41154;45.394;5.734;2024-03-29T13:09:34;50.80;;;6.13;;
55288;SDS011;41154;45.394;5.734;2024-03-29T13:12:00;46.22;;;5.25;;
55288;SDS011;41154;45.394;5.734;2024-03-29T13:14:26;46.13;;;5.45;;
55288;SDS011;41154;45.394;5.734;2024-03-29T13:16:52;46.53;;;5.85;;
55288;SDS011;41154;45.394;5.734;2024-03-29T13:19:17;40.72;;;5.70;;
55288;SDS011;41154;45.394;5.734;2024-03-29T13:21:43;47.45;;;5.55;;
55288;SDS011;41154;45.394;5.734;2024-03-29T13:24:09;42.38;;;5.32;;
55288;SDS011;41154;45.394;5.734;2024-03-29T13:26:35;43.95;;;5.35;;
55288;SDS011;41154;45.394;5.734;2024-03-29T13:29:01;50.95;;;6.43;;
55288;SDS011;41154;45.394;5.734;2024-03-29T13:31:26;51.95;;;5.03;;
55288;SDS011;41154;45.394;5.734;2024-03-29T13:33:53;57.47;;;7.43;;
55288;SDS011;41154;45.394;5.734;2024-03-29T13:36:29;65.32;;;5.95;;
55288;SDS011;41154;45.394;5.734;2024-03-29T13:38:55;71.43;;;5.53;;
55288;SDS011;41154;45.394;5.734;2024-03-29T13:41:21;73.57;;;7.32;;
55288;SDS011;41154;45.394;5.734;2024-03-29T13:43:47;49.00;;;5.88;;
55288;SDS011;41154;45.394;5.734;2024-03-29T13:46:13;67.68;;;5.88;;
55288;SDS011;41154;45.394;5.734;2024-03-29T13:48:38;42.55;;;4.82;;
55288;SDS011;41154;45.394;5.734;2024-03-29T13:51:06;73.13;;;6.30;;
55288;SDS011;41154;45.394;5.734;2024-03-29T13:53:32;48.92;;;6.90;;
55288;SDS011;41154;45.394;5.734;2024-03-29T13:56:01;52.10;;;6.93;;
55288;SDS011;41154;45.394;5.734;2024-03-29T13:58:28;41.45;;;5.32;;
55288;SDS011;41154;45.394;5.734;2024-03-29T14:00:55;47.50;;;5.93;;
55288;SDS011;41154;45.394;5.734;2024-03-29T14:03:25;39.75;;;5.32;;
55288;SDS011;41154;45.394;5.734;2024-03-29T14:05:51;52.25;;;6.13;;
55288;SDS011;41154;45.394;5.734;2024-03-29T14:08:17;46.38;;;5.47;;
55288;SDS011;41154;45.394;5.734;2024-03-29T14:10:42;50.17;;;5.55;;
55288;SDS011;41154;45.394;5.734;2024-03-29T14:13:09;49.25;;;5.57;;
55288;SDS011;41154;45.394;5.734;2024-03-29T14:15:35;41.65;;;5.28;;
55288;SDS011;41154;45.394;5.734;2024-03-29T14:18:00;59.40;;;5.57;;
55288;SDS011;41154;45.394;5.734;2024-03-29T14:20:26;52.58;;;5.40;;
55288;SDS011;41154;45.394;5.734;2024-03-29T14:22:52;44.42;;;5.60;;
55288;SDS011;41154;45.394;5.734;2024-03-29T14:25:21;34.22;;;4.63;;
55288;SDS011;41154;45.394;5.734;2024-03-29T14:27:47;38.55;;;4.63;;
55288;SDS011;41154;45.394;5.734;2024-03-29T14:30:22;49.15;;;5.68;;
55288;SDS011;41154;45.394;5.734;2024-03-29T14:32:50;47.92;;;4.35;;
55288;SDS011;41154;45.394;5.734;2024-03-29T14:35:17;50.17;;;5.55;;
55288;SDS011;41154;45.394;5.734;2024-03-29T14:37:44;29.23;;;4.22;;
55288;SDS011;41154;45.394;5.734;2024-03-29T14:40:10;38.65;;;4.28;;
55288;SDS011;41154;45.394;5.734;2024-03-29T14:42:42;40.35;;;4.07;;
55288;SDS011;41154;45.394;5.734;2024-03-29T14:45:10;40.90;;;3.85;;
55288;SDS011;41154;45.394;5.734;2024-03-29T14:47:38;44.22;;;4.68;;
55288;SDS011;41154;45.394;5.734;2024-03-29T14:50:04;55.80;;;4.93;;
55288;SDS011;41154;45.394;5.734;2024-03-29T14:52:36;39.05;;;4.50;;
55288;SDS011;41154;45.394;5.734;2024-03-29T14:55:03;45.08;;;6.18;;
55288;SDS011;41154;45.394;5.734;2024-03-29T14:57:29;36.83;;;4.22;;
55288;SDS011;41154;45.394;5.734;2024-03-29T14:59:55;46.65;;;5.80;;
55288;SDS011;41154;45.394;5.734;2024-03-29T15:02:21;45.28;;;4.30;;
55288;SDS011;41154;45.394;5.734;2024-03-29T15:04:47;37.03;;;4.45;;
55288;SDS011;41154;45.394;5.734;2024-03-29T15:07:13;49.55;;;5.75;;
55288;SDS011;41154;45.394;5.734;2024-03-29T15:09:38;37.80;;;5.22;;
55288;SDS011;41154;45.394;5.734;2024-03-29T15:12:04;37.60;;;4.10;;
55288;SDS011;41154;45.394;5.734;2024-03-29T15:14:30;38.58;;;5.85;;
55288;SDS011;41154;45.394;5.734;2024-03-29T15:16:56;39.30;;;3.72;;
55288;SDS011;41154;45.394;5.734;2024-03-29T15:19:22;50.50;;;5.32;;
55288;SDS011;41154;45.394;5.734;2024-03-29T15:21:48;34.58;;;4.35;;
55288;SDS011;41154;45.394;5.734;2024-03-29T15:24:14;39.47;;;4.53;;
55288;SDS011;41154;45.394;5.734;2024-03-29T15:26:41;51.10;;;6.38;;
55288;SDS011;41154;45.394;5.734;2024-03-29T15:29:06;47.22;;;5.97;;
55288;SDS011;41154;45.394;5.734;2024-03-29T15:31:41;40.35;;;4.57;;
55288;SDS011;41154;45.394;5.734;2024-03-29T15:34:09;63.28;;;5.03;;
55288;SDS011;41154;45.394;5.734;2024-03-29T15:36:36;41.97;;;4.75;;
55288;SDS011;41154;45.394;5.734;2024-03-29T15:39:03;42.13;;;5.13;;
55288;SDS011;41154;45.394;5.734;2024-03-29T15:41:40;43.85;;;4.82;;
55288;SDS011;41154;45.394;5.734;2024-03-29T15:44:06;41.75;;;4.60;;
55288;SDS011;41154;45.394;5.734;2024-03-29T15:46:33;31.65;;;4.15;;
55288;SDS011;41154;45.394;5.734;2024-03-29T15:48:59;38.28;;;5.15;;
55288;SDS011;41154;45.394;5.734;2024-03-29T15:51:25;46.15;;;4.57;;
55288;SDS011;41154;45.394;5.734;2024-03-29T15:53:51;55.50;;;6.63;;
55288;SDS011;41154;45.394;5.734;2024-03-29T15:56:18;43.83;;;5.00;;
55288;SDS011;41154;45.394;5.734;2024-03-29T15:58:45;44.53;;;4.95;;
55288;SDS011;41154;45.394;5.734;2024-03-29T16:01:10;54.72;;;6.75;;
55288;SDS011;41154;45.394;5.734;2024-03-29T16:03:38;42.38;;;4.97;;
55288;SDS011;41154;45.394;5.734;2024-03-29T16:06:04;48.30;;;4.72;;
55288;SDS011;41154;45.394;5.734;2024-03-29T16:08:30;31.05;;;4.10;;
55288;SDS011;41154;45.394;5.734;2024-03-29T16:10:59;45.90;;;5.57;;
55288;SDS011;41154;45.394;5.734;2024-03-29T16:13:27;43.92;;;5.07;;
55288;SDS011;41154;45.394;5.734;2024-03-29T16:15:55;54.33;;;5.03;;
55288;SDS011;41154;45.394;5.734;2024-03-29T16:18:26;47.30;;;5.30;;
55288;SDS011;41154;45.394;5.734;2024-03-29T16:20:53;44.35;;;5.45;;
55288;SDS011;41154;45.394;5.734;2024-03-29T16:23:21;45.03;;;4.88;;
55288;SDS011;41154;45.394;5.734;2024-03-29T16:25:48;42.15;;;4.78;;
55288;SDS011;41154;45.394;5.734;2024-03-29T16:28:15;39.80;;;4.25;;
55288;SDS011;41154;45.394;5.734;2024-03-29T16:30:41;41.45;;;5.30;;
55288;SDS011;41154;45.394;5.734;2024-03-29T16:33:07;47.75;;;4.60;;
55288;SDS011;41154;45.394;5.734;2024-03-29T16:35:33;55.67;;;5.80;;
55288;SDS011;41154;45.394;5.734;2024-03-29T16:38:00;48.65;;;4.80;;
55288;SDS011;41154;45.394;5.734;2024-03-29T16:40:26;49.10;;;5.07;;
55288;SDS011;41154;45.394;5.734;2024-03-29T16:42:52;40.78;;;5.03;;
55288;SDS011;41154;45.394;5.734;2024-03-29T16:45:18;45.83;;;6.63;;
55288;SDS011;41154;45.394;5.734;2024-03-29T16:47:44;33.15;;;3.95;;
55288;SDS011;41154;45.394;5.734;2024-03-29T16:50:10;50.00;;;5.75;;
55288;SDS011;41154;45.394;5.734;2024-03-29T16:52:36;51.00;;;5.43;;
55288;SDS011;41154;45.394;5.734;2024-03-29T16:55:02;46.03;;;5.35;;
55288;SDS011;41154;45.394;5.734;2024-03-29T16:57:29;42.47;;;5.28;;
55288;SDS011;41154;45.394;5.734;2024-03-29T16:59:55;54.17;;;4.95;;
55288;SDS011;41154;45.394;5.734;2024-03-29T17:02:20;54.10;;;5.57;;
55288;SDS011;41154;45.394;5.734;2024-03-29T17:04:46;51.90;;;5.75;;
55288;SDS011;41154;45.394;5.734;2024-03-29T17:07:15;48.42;;;5.65;;
55288;SDS011;41154;45.394;5.734;2024-03-29T17:09:42;58.45;;;5.63;;
55288;SDS011;41154;45.394;5.734;2024-03-29T17:12:10;46.97;;;4.78;;
55288;SDS011;41154;45.394;5.734;2024-03-29T17:14:37;49.17;;;4.97;;
55288;SDS011;41154;45.394;5.734;2024-03-29T17:17:04;52.08;;;5.85;;
55288;SDS011;41154;45.394;5.734;2024-03-29T17:19:30;47.85;;;5.93;;
55288;SDS011;41154;45.394;5.734;2024-03-29T17:21:57;42.33;;;5.47;;
55288;SDS011;41154;45.394;5.734;2024-03-29T17:24:23;60.22;;;7.53;;
55288;SDS011;41154;45.394;5.734;2024-03-29T17:26:48;59.70;;;7.55;;
55288;SDS011;41154;45.394;5.734;2024-03-29T17:29:15;50.42;;;6.72;;
55288;SDS011;41154;45.394;5.734;2024-03-29T17:31:42;56.53;;;6.28;;
55288;SDS011;41154;45.394;5.734;2024-03-29T17:34:08;61.63;;;7.55;;
55288;SDS011;41154;45.394;5.734;2024-03-29T17:36:41;52.22;;;5.72;;
55288;SDS011;41154;45.394;5.734;2024-03-29T17:39:07;60.65;;;6.65;;
55288;SDS011;41154;45.394;5.734;2024-03-29T17:41:34;77.68;;;7.38;;
55288;SDS011;41154;45.394;5.734;2024-03-29T17:44:00;61.45;;;6.88;;
55288;SDS011;41154;45.394;5.734;2024-03-29T17:46:26;68.55;;;6.53;;
55288;SDS011;41154;45.394;5.734;2024-03-29T17:48:52;67.32;;;7.03;;
55288;SDS011;41154;45.394;5.734;2024-03-29T17:51:19;68.03;;;7.35;;
55288;SDS011;41154;45.394;5.734;2024-03-29T17:53:44;70.75;;;7.57;;
55288;SDS011;41154;45.394;5.734;2024-03-29T17:56:10;56.58;;;7.60;;
55288;SDS011;41154;45.394;5.734;2024-03-29T17:58:36;65.47;;;7.75;;
55288;SDS011;41154;45.394;5.734;2024-03-29T18:01:02;68.97;;;7.22;;
55288;SDS011;41154;45.394;5.734;2024-03-29T18:03:28;65.28;;;6.72;;
55288;SDS011;41154;45.394;5.734;2024-03-29T18:05:54;81.88;;;8.52;;
55288;SDS011;41154;45.394;5.734;2024-03-29T18:08:20;91.55;;;8.93;;
55288;SDS011;41154;45.394;5.734;2024-03-29T18:10:47;78.32;;;7.93;;
55288;SDS011;41154;45.394;5.734;2024-03-29T18:13:13;80.85;;;8.77;;
55288;SDS011;41154;45.394;5.734;2024-03-29T18:15:42;70.28;;;8.10;;
55288;SDS011;41154;45.394;5.734;2024-03-29T18:18:10;67.60;;;8.60;;
55288;SDS011;41154;45.394;5.734;2024-03-29T18:20:36;87.38;;;8.90;;
55288;SDS011;41154;45.394;5.734;2024-03-29T18:23:03;79.90;;;9.57;;
55288;SDS011;41154;45.394;5.734;2024-03-29T18:25:34;74.18;;;8.25;;
55288;SDS011;41154;45.394;5.734;2024-03-29T18:28:00;70.82;;;8.40;;
55288;SDS011;41154;45.394;5.734;2024-03-29T18:30:29;86.07;;;11.13;;
55288;SDS011;41154;45.394;5.734;2024-03-29T18:32:56;71.85;;;8.63;;
55288;SDS011;41154;45.394;5.734;2024-03-29T18:35:22;73.63;;;8.50;;
55288;SDS011;41154;45.394;5.734;2024-03-29T18:37:48;93.70;;;9.43;;
55288;SDS011;41154;45.394;5.734;2024-03-29T18:40:17;93.93;;;9.68;;
55288;SDS011;41154;45.394;5.734;2024-03-29T18:42:45;78.47;;;8.27;;
55288;SDS011;41154;45.394;5.734;2024-03-29T18:45:12;106.13;;;9.80;;
55288;SDS011;41154;45.394;5.734;2024-03-29T18:47:38;74.78;;;10.07;;
55288;SDS011;41154;45.394;5.734;2024-03-29T18:50:04;95.18;;;9.80;;
55288;SDS011;41154;45.394;5.734;2024-03-29T18:52:30;97.43;;;10.00;;
55288;SDS011;41154;45.394;5.734;2024-03-29T18:54:56;93.68;;;8.98;;
55288;SDS011;41154;45.394;5.734;2024-03-29T18:57:22;99.00;;;10.38;;
55288;SDS011;41154;45.394;5.734;2024-03-29T18:59:51;86.90;;;9.63;;
55288;SDS011;41154;45.394;5.734;2024-03-29T19:02:17;97.28;;;10.30;;
55288;SDS011;41154;45.394;5.734;2024-03-29T19:04:43;96.82;;;12.55;;
55288;SDS011;41154;45.394;5.734;2024-03-29T19:07:08;87.78;;;10.50;;
55288;SDS011;41154;45.394;5.734;2024-03-29T19:09:34;121.82;;;11.60;;
55288;SDS011;41154;45.394;5.734;2024-03-29T19:12:00;105.65;;;10.18;;
55288;SDS011;41154;45.394;5.734;2024-03-29T19:14:28;110.25;;;9.25;;
55288;SDS011;41154;45.394;5.734;2024-03-29T19:16:54;115.63;;;9.98;;
55288;SDS011;41154;45.394;5.734;2024-03-29T19:19:23;101.22;;;9.68;;
55288;SDS011;41154;45.394;5.734;2024-03-29T19:21:50;99.45;;;9.95;;
55288;SDS011;41154;45.394;5.734;2024-03-29T19:24:20;90.90;;;9.35;;
55288;SDS011;41154;45.394;5.734;2024-03-29T19:26:46;91.90;;;9.30;;
55288;SDS011;41154;45.394;5.734;2024-03-29T19:29:12;109.55;;;10.70;;
55288;SDS011;41154;45.394;5.734;2024-03-29T19:31:39;96.97;;;8.88;;
55288;SDS011;41154;45.394;5.734;2024-03-29T19:34:06;89.53;;;9.07;;
55288;SDS011;41154;45.394;5.734;2024-03-29T19:36:32;96.85;;;11.10;;
55288;SDS011;41154;45.394;5.734;2024-03-29T19:38:58;89.22;;;8.27;;
55288;SDS011;41154;45.394;5.734;2024-03-29T19:41:24;76.40;;;8.13;;
55288;SDS011;41154;45.394;5.734;2024-03-29T19:43:50;78.25;;;9.25;;
55288;SDS011;41154;45.394;5.734;2024-03-29T19:46:15;104.07;;;9.30;;
55288;SDS011;41154;45.394;5.734;2024-03-29T19:48:41;84.40;;;7.97;;
55288;SDS011;41154;45.394;5.734;2024-03-29T19:51:07;72.45;;;8.82;;
55288;SDS011;41154;45.394;5.734;2024-03-29T19:53:32;75.82;;;8.57;;
55288;SDS011;41154;45.394;5.734;2024-03-29T19:56:00;80.72;;;8.27;;
55288;SDS011;41154;45.394;5.734;2024-03-29T19:58:25;84.43;;;8.82;;
55288;SDS011;41154;45.394;5.734;2024-03-29T20:00:53;64.20;;;7.90;;
55288;SDS011;41154;45.394;5.734;2024-03-29T20:03:19;71.65;;;8.27;;
55288;SDS011;41154;45.394;5.734;2024-03-29T20:05:45;69.50;;;8.13;;
55288;SDS011;41154;45.394;5.734;2024-03-29T20:08:11;87.45;;;8.98;;
55288;SDS011;41154;45.394;5.734;2024-03-29T20:10:40;81.95;;;8.63;;
55288;SDS011;41154;45.394;5.734;2024-03-29T20:13:07;73.88;;;8.25;;
55288;SDS011;41154;45.394;5.734;2024-03-29T20:18:03;78.63;;;7.07;;
55288;SDS011;41154;45.394;5.734;2024-03-29T20:20:30;96.47;;;8.25;;
55288;SDS011;41154;45.394;5.734;2024-03-29T20:22:59;79.95;;;8.68;;
55288;SDS011;41154;45.394;5.734;2024-03-29T20:25:25;66.82;;;5.90;;
55288;SDS011;41154;45.394;5.734;2024-03-29T20:27:51;72.57;;;9.77;;
55288;SDS011;41154;45.394;5.734;2024-03-29T20:30:17;61.53;;;6.30;;
55288;SDS011;41154;45.394;5.734;2024-03-29T20:32:46;66.95;;;6.93;;
55288;SDS011;41154;45.394;5.734;2024-03-29T20:35:12;67.55;;;7.38;;
55288;SDS011;41154;45.394;5.734;2024-03-29T20:37:39;71.75;;;6.35;;
55288;SDS011;41154;45.394;5.734;2024-03-29T20:40:07;54.05;;;6.75;;
55288;SDS011;41154;45.394;5.734;2024-03-29T20:42:38;67.55;;;6.50;;
55288;SDS011;41154;45.394;5.734;2024-03-29T20:45:04;59.03;;;6.43;;
55288;SDS011;41154;45.394;5.734;2024-03-29T20:47:33;57.28;;;5.80;;
55288;SDS011;41154;45.394;5.734;2024-03-29T20:50:01;73.93;;;7.60;;
55288;SDS011;41154;45.394;5.734;2024-03-29T20:52:29;67.53;;;6.13;;
55288;SDS011;41154;45.394;5.734;2024-03-29T20:54:54;53.65;;;6.72;;
55288;SDS011;41154;45.394;5.734;2024-03-29T20:57:23;58.15;;;6.30;;
55288;SDS011;41154;45.394;5.734;2024-03-29T20:59:50;72.53;;;6.18;;
55288;SDS011;41154;45.394;5.734;2024-03-29T21:02:16;62.40;;;5.82;;
55288;SDS011;41154;45.394;5.734;2024-03-29T21:05:00;52.78;;;6.68;;
55288;SDS011;41154;45.394;5.734;2024-03-29T21:07:45;75.10;;;5.82;;
55288;SDS011;41154;45.394;5.734;2024-03-29T21:10:12;50.47;;;5.50;;
55288;SDS011;41154;45.394;5.734;2024-03-29T21:12:38;55.35;;;5.63;;
55288;SDS011;41154;45.394;5.734;2024-03-29T21:15:05;59.15;;;6.80;;
55288;SDS011;41154;45.394;5.734;2024-03-29T21:17:31;67.63;;;5.65;;
55288;SDS011;41154;45.394;5.734;2024-03-29T21:19:56;56.20;;;5.80;;
55288;SDS011;41154;45.394;5.734;2024-03-29T21:22:23;61.67;;;5.82;;
55288;SDS011;41154;45.394;5.734;2024-03-29T21:24:48;40.30;;;5.22;;
55288;SDS011;41154;45.394;5.734;2024-03-29T21:27:14;57.05;;;5.13;;
55288;SDS011;41154;45.394;5.734;2024-03-29T21:29:40;55.45;;;5.63;;
55288;SDS011;41154;45.394;5.734;2024-03-29T21:32:06;48.10;;;4.35;;